createdAt,value
2018-11-11T00:01:18.516Z,61.63
2018-11-11T00:03:45.841Z,62.88
2018-11-11T00:06:13.158Z,72.12
2018-11-11T00:08:40.509Z,121.30
2018-11-11T00:11:07.837Z,58.33
2018-11-11T00:13:35.160Z,83.92
2018-11-11T00:16:02.472Z,168.57
2018-11-11T00:18:29.824Z,46.18
2018-11-11T00:20:57.190Z,72.92
2018-11-11T00:23:24.515Z,141.53
2018-11-11T00:25:51.836Z,127.17
2018-11-11T00:28:19.152Z,42.43
2018-11-11T00:30:46.471Z,394.00
2018-11-11T00:33:13.805Z,46.88
2018-11-11T00:35:41.117Z,218.93
2018-11-11T00:38:08.451Z,38.78
2018-11-11T00:40:35.796Z,46.75
2018-11-11T00:43:03.181Z,132.45
2018-11-11T00:45:30.448Z,44.50
2018-11-11T00:47:57.715Z,298.02
2018-11-11T00:50:24.988Z,256.45
2018-11-11T00:52:52.238Z,115.77
2018-11-11T00:55:19.503Z,217.45
2018-11-11T00:57:46.754Z,70.87
2018-11-11T01:00:15.366Z,274.52
2018-11-11T01:02:43.335Z,243.02
2018-11-11T01:05:11.394Z,287.05
2018-11-11T01:07:39.554Z,84.97
2018-11-11T01:10:08.668Z,185.48
2018-11-11T01:12:35.946Z,203.90
2018-11-11T01:15:03.275Z,134.52
2018-11-11T01:17:30.518Z,141.10
2018-11-11T01:19:57.803Z,151.45
2018-11-11T01:22:25.063Z,191.30
2018-11-11T01:24:52.330Z,103.83
2018-11-11T01:27:19.594Z,74.37
2018-11-11T01:29:46.871Z,48.42
2018-11-11T01:32:14.133Z,86.20
2018-11-11T01:34:41.415Z,89.00
2018-11-11T01:37:08.695Z,39.20
2018-11-11T01:39:35.962Z,31.52
2018-11-11T01:42:03.274Z,73.92
2018-11-11T01:44:30.571Z,26.62
2018-11-11T01:46:57.832Z,36.88
2018-11-11T01:49:25.139Z,102.30
2018-11-11T01:51:52.407Z,32.60
2018-11-11T01:54:19.678Z,51.30
2018-11-11T01:56:46.941Z,141.32
2018-11-11T01:59:14.261Z,54.20
2018-11-11T02:01:41.596Z,32.65
2018-11-11T02:04:08.916Z,32.33
2018-11-11T02:06:36.880Z,26.10
2018-11-11T02:09:07.177Z,37.85
2018-11-11T02:11:34.485Z,16.87
2018-11-11T02:14:01.811Z,16.20
2018-11-11T02:16:29.141Z,23.90
2018-11-11T02:18:56.443Z,20.15
2018-11-11T02:21:23.823Z,29.92
2018-11-11T02:23:51.136Z,17.55
2018-11-11T02:26:18.487Z,46.53
2018-11-11T02:28:45.809Z,33.85
2018-11-11T02:31:13.144Z,38.13
2018-11-11T02:33:40.536Z,34.67
2018-11-11T02:36:07.878Z,43.15
2018-11-11T02:38:35.225Z,39.90
2018-11-11T02:41:02.541Z,44.18
2018-11-11T02:43:29.850Z,33.18
2018-11-11T02:45:57.176Z,41.42
2018-11-11T02:48:24.471Z,28.77
2018-11-11T02:50:51.792Z,26.87
2018-11-11T02:53:19.233Z,23.15
2018-11-11T02:55:46.562Z,37.65
2018-11-11T02:58:13.876Z,40.58
2018-11-11T03:00:41.201Z,32.55
2018-11-11T03:03:08.516Z,45.20
2018-11-11T03:05:35.815Z,39.98
2018-11-11T03:08:03.122Z,33.80
2018-11-11T03:10:31.469Z,38.23
2018-11-11T03:12:58.807Z,32.03
2018-11-11T03:15:26.117Z,34.88
2018-11-11T03:17:53.450Z,43.95
2018-11-11T03:20:20.759Z,46.00
2018-11-11T03:22:48.059Z,167.00
2018-11-11T03:25:16.136Z,49.25
2018-11-11T03:27:43.595Z,58.28
2018-11-11T03:30:12.402Z,21.52
2018-11-11T03:32:39.993Z,17.85
2018-11-11T03:35:08.882Z,26.12
2018-11-11T03:37:36.228Z,131.03
2018-11-11T03:40:07.244Z,52.15
2018-11-11T03:42:34.552Z,49.35
2018-11-11T03:45:01.897Z,49.98
2018-11-11T03:47:29.633Z,50.00
2018-11-11T03:49:56.945Z,21.27
2018-11-11T03:52:24.260Z,20.48
2018-11-11T03:54:51.572Z,18.90
2018-11-11T03:57:18.872Z,18.80
2018-11-11T03:59:46.192Z,15.78
2018-11-11T04:02:13.515Z,30.15
2018-11-11T04:04:40.845Z,26.65
2018-11-11T04:07:08.160Z,32.75
2018-11-11T04:09:35.498Z,21.55
2018-11-11T04:12:02.808Z,21.57
2018-11-11T04:14:30.120Z,25.57
2018-11-11T04:16:57.444Z,25.20
2018-11-11T04:19:24.997Z,158.35
2018-11-11T04:21:52.307Z,54.15
2018-11-11T04:24:19.624Z,61.65
2018-11-11T04:26:46.941Z,54.90
2018-11-11T04:29:14.252Z,23.47
2018-11-11T04:31:41.548Z,23.25
2018-11-11T04:34:08.905Z,18.48
2018-11-11T04:36:36.204Z,21.40
2018-11-11T04:39:06.458Z,21.35
2018-11-11T04:41:33.751Z,19.15
2018-11-11T04:44:01.076Z,17.77
2018-11-11T04:46:29.467Z,17.52
2018-11-11T04:48:56.792Z,16.25
2018-11-11T04:51:24.106Z,14.83
2018-11-11T04:53:51.404Z,22.20
2018-11-11T04:56:18.812Z,49.70
2018-11-11T04:58:47.121Z,234.50
2018-11-11T05:01:14.483Z,139.05
2018-11-11T05:03:41.770Z,118.13
2018-11-11T05:06:09.096Z,133.67
2018-11-11T05:08:36.420Z,362.57
2018-11-11T05:11:03.752Z,553.92
2018-11-11T05:13:31.625Z,388.15
2018-11-11T05:15:58.960Z,140.70
2018-11-11T05:18:26.305Z,140.77
2018-11-11T05:20:53.653Z,436.95
2018-11-11T05:23:21.037Z,339.32
2018-11-11T05:25:48.340Z,365.95
2018-11-11T05:28:15.681Z,349.23
2018-11-11T05:30:43.009Z,312.25
2018-11-11T05:33:10.332Z,169.32
2018-11-11T05:35:37.657Z,101.35
2018-11-11T05:38:04.992Z,37.73
2018-11-11T05:40:32.316Z,31.10
2018-11-11T05:42:59.724Z,28.50
2018-11-11T05:45:27.060Z,31.37
2018-11-11T05:47:54.376Z,23.52
2018-11-11T05:50:21.934Z,25.68
2018-11-11T05:52:49.449Z,20.60
2018-11-11T05:55:16.787Z,23.15
2018-11-11T05:57:44.124Z,22.17
2018-11-11T06:00:12.593Z,20.45
2018-11-11T06:02:39.929Z,19.62
2018-11-11T06:05:08.932Z,21.80
2018-11-11T06:07:36.419Z,19.20
2018-11-11T06:10:04.444Z,23.35
2018-11-11T06:12:31.817Z,20.00
2018-11-11T06:14:59.157Z,26.30
2018-11-11T06:17:26.507Z,22.15
2018-11-11T06:19:53.865Z,20.35
2018-11-11T06:22:21.236Z,22.20
2018-11-11T06:24:48.573Z,20.70
2018-11-11T06:27:15.951Z,19.50
2018-11-11T06:29:43.292Z,17.77
2018-11-11T06:32:10.638Z,40.78
2018-11-11T06:34:38.001Z,384.60
2018-11-11T06:37:05.378Z,384.40
2018-11-11T06:39:32.768Z,301.00
2018-11-11T06:42:00.786Z,209.07
2018-11-11T06:44:28.104Z,283.45
2018-11-11T06:46:55.432Z,260.80
2018-11-11T06:49:22.790Z,260.52
2018-11-11T06:51:50.778Z,168.07
2018-11-11T06:54:18.114Z,127.67
2018-11-11T06:56:45.416Z,196.87
2018-11-11T06:59:12.774Z,173.28
2018-11-11T07:01:40.072Z,112.00
2018-11-11T07:04:07.405Z,100.45
2018-11-11T07:06:34.720Z,187.55
2018-11-11T07:09:02.055Z,151.53
2018-11-11T07:11:30.356Z,56.42
2018-11-11T07:13:57.683Z,35.68
2018-11-11T07:16:24.994Z,26.48
2018-11-11T07:18:52.306Z,24.92
2018-11-11T07:21:19.676Z,21.15
2018-11-11T07:23:47.319Z,16.00
2018-11-11T07:26:14.510Z,13.68
2018-11-11T07:28:41.841Z,12.93
2018-11-11T07:31:09.368Z,12.58
2018-11-11T07:33:36.763Z,11.93
2018-11-11T07:36:04.620Z,13.43
2018-11-11T07:38:31.881Z,16.30
2018-11-11T07:40:59.221Z,11.73
2018-11-11T07:43:26.559Z,10.88
2018-11-11T07:45:53.881Z,11.28
2018-11-11T07:48:21.210Z,12.55
2018-11-11T07:50:48.612Z,10.65
2018-11-11T07:53:15.980Z,10.53
2018-11-11T07:55:43.320Z,10.13
2018-11-11T07:58:10.671Z,10.53
2018-11-11T08:00:38.008Z,11.12
2018-11-11T08:03:05.403Z,10.53
2018-11-11T08:05:32.724Z,11.40
2018-11-11T08:08:00.069Z,9.93
2018-11-11T08:10:39.153Z,10.08
2018-11-11T08:13:06.523Z,10.70
2018-11-11T08:15:33.848Z,10.32
2018-11-11T08:18:01.188Z,9.20
2018-11-11T08:20:28.512Z,10.98
2018-11-11T08:22:55.836Z,12.03
2018-11-11T08:25:23.167Z,10.93
2018-11-11T08:27:50.468Z,9.40
2018-11-11T08:30:17.885Z,13.98
2018-11-11T08:32:45.220Z,9.95
2018-11-11T08:35:12.540Z,10.65
2018-11-11T08:37:39.893Z,13.57
2018-11-11T08:40:07.794Z,9.23
2018-11-11T08:42:35.109Z,8.00
2018-11-11T08:45:02.898Z,8.27
2018-11-11T08:47:30.224Z,8.17
2018-11-11T08:49:57.587Z,8.27
2018-11-11T08:52:24.916Z,7.50
2018-11-11T08:54:52.258Z,7.97
2018-11-11T08:57:19.596Z,7.30
2018-11-11T08:59:46.937Z,6.93
2018-11-11T09:02:14.239Z,7.93
2018-11-11T09:04:41.613Z,7.80
2018-11-11T09:07:08.917Z,8.30
2018-11-11T09:09:36.320Z,8.33
2018-11-11T09:12:03.901Z,7.77
2018-11-11T09:14:31.219Z,9.47
2018-11-11T09:16:58.531Z,8.30
2018-11-11T09:19:25.869Z,7.83
2018-11-11T09:21:53.201Z,7.23
2018-11-11T09:24:20.633Z,7.30
2018-11-11T09:26:47.931Z,7.53
2018-11-11T09:29:15.248Z,7.93
2018-11-11T09:31:42.552Z,6.70
2018-11-11T09:34:09.897Z,8.33
2018-11-11T09:36:37.304Z,8.10
2018-11-11T09:39:07.520Z,8.20
2018-11-11T09:41:34.822Z,7.57
2018-11-11T09:44:02.170Z,7.30
2018-11-11T09:46:29.488Z,6.43
2018-11-11T09:48:58.151Z,6.70
2018-11-11T09:51:25.494Z,7.53
2018-11-11T09:53:52.912Z,6.60
2018-11-11T09:56:20.384Z,6.43
2018-11-11T09:58:47.796Z,7.30
2018-11-11T10:01:15.092Z,7.57
2018-11-11T10:03:46.903Z,5.30
2018-11-11T10:06:20.658Z,5.87
2018-11-11T10:08:54.510Z,5.40
2018-11-11T10:11:26.663Z,6.20
2018-11-11T10:13:59.623Z,4.73
2018-11-11T10:16:41.435Z,5.10
2018-11-11T10:19:16.453Z,4.70
2018-11-11T10:22:53.536Z,4.90
2018-11-11T10:25:33.785Z,4.60
2018-11-11T10:28:10.842Z,4.37
2018-11-11T10:30:49.994Z,4.20
2018-11-11T10:34:29.747Z,4.63
2018-11-11T10:37:05.261Z,5.97
2018-11-11T10:39:38.416Z,6.43
2018-11-11T10:42:24.932Z,8.87
2018-11-11T10:44:57.833Z,7.60
2018-11-11T10:47:29.168Z,7.40
2018-11-11T10:49:59.612Z,6.40
2018-11-11T10:52:26.966Z,8.40
2018-11-11T10:54:54.744Z,10.83
2018-11-11T10:57:22.081Z,10.03
2018-11-11T10:59:49.400Z,9.00
2018-11-11T11:02:19.226Z,12.10
2018-11-11T11:04:52.269Z,11.73
2018-11-11T11:07:19.847Z,11.30
2018-11-11T11:09:47.189Z,11.10
2018-11-11T11:12:15.212Z,11.23
2018-11-11T11:14:42.528Z,11.73
2018-11-11T11:17:09.833Z,10.83
2018-11-11T11:19:37.136Z,10.53
2018-11-11T11:22:05.077Z,10.47
2018-11-11T11:24:32.392Z,12.07
2018-11-11T11:26:59.777Z,11.00
2018-11-11T11:29:27.045Z,10.50
2018-11-11T11:31:54.400Z,10.67
2018-11-11T11:34:21.708Z,10.20
2018-11-11T11:36:49.092Z,10.13
2018-11-11T11:39:16.395Z,10.00
2018-11-11T11:41:43.716Z,11.47
2018-11-11T11:44:11.041Z,9.90
2018-11-11T11:46:38.364Z,8.73
2018-11-11T11:49:05.676Z,10.67
2018-11-11T11:51:32.993Z,9.60
2018-11-11T11:54:00.370Z,7.90
2018-11-11T11:56:27.848Z,8.93
2018-11-11T11:58:55.177Z,9.30
2018-11-11T12:01:22.476Z,8.93
2018-11-11T12:03:49.837Z,9.20
2018-11-11T12:06:17.410Z,9.00
2018-11-11T12:08:44.915Z,7.70
2018-11-11T12:11:12.165Z,7.43
2018-11-11T12:13:39.480Z,7.83
2018-11-11T12:16:06.789Z,7.80
2018-11-11T12:18:35.109Z,8.00
2018-11-11T12:21:02.476Z,7.93
2018-11-11T12:23:29.792Z,10.20
2018-11-11T12:25:57.117Z,6.30
2018-11-11T12:28:24.437Z,6.70
2018-11-11T12:30:51.895Z,5.97
2018-11-11T12:33:19.201Z,6.50
2018-11-11T12:35:47.119Z,5.77
2018-11-11T12:38:14.452Z,5.60
2018-11-11T12:40:41.766Z,4.93
2018-11-11T12:43:09.122Z,5.60
2018-11-11T12:45:36.384Z,4.97
2018-11-11T12:48:04.356Z,5.63
2018-11-11T12:50:31.704Z,5.40
2018-11-11T12:52:58.968Z,4.70
2018-11-11T12:55:26.480Z,5.40
2018-11-11T12:57:54.250Z,4.60
2018-11-11T13:00:21.608Z,4.73
2018-11-11T13:02:48.915Z,4.73
2018-11-11T13:05:16.257Z,4.90
2018-11-11T13:07:43.556Z,3.90
2018-11-11T13:10:12.081Z,5.00
2018-11-11T13:12:39.740Z,5.57
2018-11-11T13:15:08.248Z,4.80
2018-11-11T13:17:35.684Z,5.40
2018-11-11T13:20:03.393Z,3.90
2018-11-11T13:22:30.713Z,3.80
2018-11-11T13:24:58.033Z,5.63
2018-11-11T13:27:25.320Z,4.30
2018-11-11T13:29:52.652Z,4.50
2018-11-11T13:32:20.722Z,5.03
2018-11-11T13:34:48.062Z,3.90
2018-11-11T13:37:15.383Z,5.23
2018-11-11T13:39:42.697Z,4.87
2018-11-11T13:42:10.053Z,4.70
2018-11-11T13:44:37.379Z,6.00
2018-11-11T13:47:05.001Z,6.60
2018-11-11T13:49:32.296Z,4.90
2018-11-11T13:51:59.645Z,5.20
2018-11-11T13:54:26.995Z,6.17
2018-11-11T13:56:54.301Z,5.40
2018-11-11T13:59:21.620Z,4.50
2018-11-11T14:01:49.072Z,5.60
2018-11-11T14:04:16.252Z,4.83
2018-11-11T14:06:43.574Z,4.90
2018-11-11T14:09:12.701Z,5.30
2018-11-11T14:11:40.185Z,5.43
2018-11-11T14:14:07.916Z,4.20
2018-11-11T14:16:35.384Z,4.17
2018-11-11T14:19:03.218Z,4.00
2018-11-11T14:21:30.225Z,4.23
2018-11-11T14:23:57.609Z,3.87
2018-11-11T14:26:24.961Z,4.80
2018-11-11T14:28:52.168Z,3.70
2018-11-11T14:31:19.461Z,3.87
2018-11-11T14:33:46.749Z,3.63
2018-11-11T14:36:14.027Z,3.70
2018-11-11T14:38:41.398Z,3.80
2018-11-11T14:41:08.599Z,2.90
2018-11-11T14:43:35.896Z,3.50
2018-11-11T14:46:03.288Z,6.00
2018-11-11T14:48:30.524Z,4.40
2018-11-11T14:50:57.828Z,3.47
2018-11-11T14:53:25.153Z,4.00
2018-11-11T14:55:52.477Z,4.07
2018-11-11T14:58:19.799Z,5.10
2018-11-11T15:00:47.104Z,3.37
2018-11-11T15:03:15.836Z,2.90
2018-11-11T15:05:43.163Z,4.03
2018-11-11T15:08:10.546Z,3.13
2018-11-11T15:10:37.984Z,3.70
2018-11-11T15:13:06.118Z,3.33
2018-11-11T15:15:33.436Z,3.03
2018-11-11T15:18:01.145Z,3.83
2018-11-11T15:20:28.533Z,3.40
2018-11-11T15:22:55.963Z,3.37
2018-11-11T15:25:24.508Z,3.07
2018-11-11T15:27:51.752Z,4.50
2018-11-11T15:30:24.795Z,4.13
2018-11-11T15:32:52.641Z,3.07
2018-11-11T15:35:19.945Z,4.63
2018-11-11T15:37:47.243Z,3.10
2018-11-11T15:40:18.903Z,3.27
2018-11-11T15:42:46.221Z,2.90
2018-11-11T15:45:15.451Z,4.80
2018-11-11T15:47:42.895Z,3.33
2018-11-11T15:50:14.579Z,3.90
2018-11-11T15:52:43.776Z,4.13
2018-11-11T15:55:12.349Z,4.83
2018-11-11T15:57:39.677Z,5.20
2018-11-11T16:00:09.452Z,6.40
2018-11-11T16:02:36.975Z,7.17
2018-11-11T16:05:04.868Z,6.13
2018-11-11T16:07:32.148Z,7.50
2018-11-11T16:09:59.438Z,7.33
2018-11-11T16:12:27.169Z,7.30
2018-11-11T16:14:54.476Z,10.77
2018-11-11T16:17:21.785Z,11.87
2018-11-11T16:19:49.150Z,11.73
2018-11-11T16:22:16.608Z,17.23
2018-11-11T16:24:43.936Z,11.10
2018-11-11T16:27:11.420Z,11.20
2018-11-11T16:29:38.729Z,14.07
2018-11-11T16:32:06.099Z,18.63
2018-11-11T16:34:34.520Z,17.50
2018-11-11T16:37:02.015Z,21.93
2018-11-11T16:39:29.409Z,20.70
2018-11-11T16:41:56.708Z,32.10
2018-11-11T16:44:24.129Z,27.80
2018-11-11T16:46:51.424Z,28.80
2018-11-11T16:49:18.728Z,20.93
2018-11-11T16:51:46.024Z,21.10
2018-11-11T16:54:13.332Z,21.80
2018-11-11T16:56:40.623Z,23.10
2018-11-11T16:59:07.932Z,13.70
2018-11-11T17:01:35.517Z,16.07
2018-11-11T17:04:02.841Z,18.93
2018-11-11T17:06:30.137Z,17.53
2018-11-11T17:08:57.498Z,19.00
2018-11-11T17:11:25.657Z,16.90
2018-11-11T17:13:52.956Z,17.10
2018-11-11T17:16:20.794Z,19.93
2018-11-11T17:18:48.092Z,18.80
2018-11-11T17:21:15.466Z,18.47
2018-11-11T17:23:42.848Z,19.20
2018-11-11T17:26:10.153Z,21.73
2018-11-11T17:28:37.521Z,21.63
2018-11-11T17:31:04.881Z,19.43
2018-11-11T17:33:32.237Z,22.80
2018-11-11T17:35:59.579Z,21.48
2018-11-11T17:38:26.875Z,24.30
2018-11-11T17:40:54.185Z,18.73
2018-11-11T17:43:21.480Z,21.20
2018-11-11T17:45:48.759Z,21.60
2018-11-11T17:48:16.031Z,21.70
2018-11-11T17:50:43.349Z,20.17
2018-11-11T17:53:10.648Z,23.00
2018-11-11T17:55:38.041Z,22.43
2018-11-11T17:58:05.311Z,22.57
2018-11-11T18:00:32.646Z,33.38
2018-11-11T18:03:00.821Z,24.12
2018-11-11T18:05:29.021Z,21.03
2018-11-11T18:07:56.514Z,21.13
2018-11-11T18:10:24.724Z,20.67
2018-11-11T18:12:52.006Z,21.07
2018-11-11T18:15:22.040Z,21.77
2018-11-11T18:17:49.346Z,22.77
2018-11-11T18:20:20.199Z,21.77
2018-11-11T18:22:47.976Z,20.70
2018-11-11T18:25:15.329Z,26.17
2018-11-11T18:27:42.725Z,21.42
2018-11-11T18:30:13.369Z,24.95
2018-11-11T18:32:40.683Z,28.32
2018-11-11T18:35:09.692Z,27.40
2018-11-11T18:37:37.016Z,35.05
2018-11-11T18:40:05.138Z,38.73
2018-11-11T18:42:32.522Z,30.52
2018-11-11T18:44:59.856Z,37.75
2018-11-11T18:47:27.232Z,41.75
2018-11-11T18:49:54.549Z,39.05
2018-11-11T18:52:22.552Z,46.92
2018-11-11T18:54:49.890Z,48.98
2018-11-11T18:57:17.368Z,53.78
2018-11-11T18:59:44.576Z,67.32
2018-11-11T19:02:11.867Z,40.43
2018-11-11T19:04:39.149Z,34.08
2018-11-11T19:07:07.645Z,38.48
2018-11-11T19:09:34.926Z,46.33
2018-11-11T19:12:02.277Z,39.18
2018-11-11T19:14:29.605Z,47.33
2018-11-11T19:16:56.952Z,48.38
2018-11-11T19:19:24.304Z,46.92
2018-11-11T19:21:52.173Z,52.78
2018-11-11T19:24:19.703Z,47.75
2018-11-11T19:26:47.046Z,55.15
2018-11-11T19:29:14.680Z,52.00
2018-11-11T19:31:42.105Z,51.20
2018-11-11T19:34:09.612Z,55.88
2018-11-11T19:36:36.913Z,55.40
2018-11-11T19:39:07.515Z,62.98
2018-11-11T19:41:34.839Z,62.90
2018-11-11T19:44:02.225Z,47.90
2018-11-11T19:46:29.512Z,46.40
2018-11-11T19:48:56.808Z,48.17
2018-11-11T19:51:24.105Z,53.45
2018-11-11T19:53:51.532Z,56.85
2018-11-11T19:56:18.849Z,56.37
2018-11-11T19:58:46.193Z,57.53
2018-11-11T20:01:13.513Z,53.95
2018-11-11T20:03:40.852Z,56.95
2018-11-11T20:06:08.163Z,57.20
2018-11-11T20:08:35.489Z,56.50
2018-11-11T20:11:02.873Z,59.40
2018-11-11T20:13:30.536Z,61.48
2018-11-11T20:15:57.860Z,47.60
2018-11-11T20:18:25.196Z,51.88
2018-11-11T20:20:52.496Z,56.25
2018-11-11T20:23:19.998Z,53.87
2018-11-11T20:25:47.316Z,49.33
2018-11-11T20:28:14.744Z,62.58
2018-11-11T20:30:42.014Z,56.00
2018-11-11T20:33:09.336Z,60.48
2018-11-11T20:35:36.653Z,56.00
2018-11-11T20:38:04.088Z,49.50
2018-11-11T20:40:31.417Z,49.38
2018-11-11T20:42:59.027Z,46.33
2018-11-11T20:45:28.650Z,48.10
2018-11-11T20:47:55.994Z,43.45
2018-11-11T20:50:25.684Z,40.67
2018-11-11T20:52:54.576Z,43.45
2018-11-11T20:55:22.217Z,49.00
2018-11-11T20:57:49.568Z,47.38
2018-11-11T21:00:18.465Z,43.63
2018-11-11T21:02:45.792Z,52.10
2018-11-11T21:05:14.433Z,50.95
2018-11-11T21:07:41.931Z,38.88
2018-11-11T21:10:12.079Z,43.63
2018-11-11T21:12:39.407Z,44.75
2018-11-11T21:15:08.608Z,54.98
2018-11-11T21:17:35.879Z,48.10
2018-11-11T21:20:04.300Z,51.88
2018-11-11T21:22:31.574Z,57.85
2018-11-11T21:24:58.826Z,73.07
2018-11-11T21:27:26.260Z,61.15
2018-11-11T21:29:53.571Z,71.00
2018-11-11T21:32:20.950Z,49.73
2018-11-11T21:34:48.223Z,52.73
2018-11-11T21:37:15.552Z,46.70
2018-11-11T21:39:42.870Z,44.90
2018-11-11T21:42:10.188Z,44.90
2018-11-11T21:44:37.526Z,59.08
2018-11-11T21:47:04.810Z,45.33
2018-11-11T21:49:32.133Z,53.45
2018-11-11T21:51:59.446Z,53.92
2018-11-11T21:54:26.753Z,49.42
2018-11-11T21:56:54.057Z,38.67
2018-11-11T21:59:21.381Z,45.35
2018-11-11T22:01:48.677Z,45.00
2018-11-11T22:04:15.980Z,53.68
2018-11-11T22:06:43.288Z,53.38
2018-11-11T22:09:11.555Z,51.45
2018-11-11T22:11:39.100Z,54.98
2018-11-11T22:14:07.057Z,59.27
2018-11-11T22:16:34.352Z,58.68
2018-11-11T22:19:01.705Z,66.05
2018-11-11T22:21:29.026Z,47.33
2018-11-11T22:23:56.341Z,47.20
2018-11-11T22:26:23.713Z,52.53
2018-11-11T22:28:50.973Z,47.10
2018-11-11T22:31:18.281Z,48.68
2018-11-11T22:33:45.614Z,50.75
2018-11-11T22:36:12.924Z,52.88
2018-11-11T22:38:40.253Z,52.30
2018-11-11T22:41:07.578Z,50.80
2018-11-11T22:43:34.939Z,52.73
2018-11-11T22:46:02.240Z,51.08
2018-11-11T22:48:29.569Z,42.83
2018-11-11T22:50:56.873Z,42.25
2018-11-11T22:53:24.191Z,44.77
2018-11-11T22:55:51.532Z,43.40
2018-11-11T22:58:18.873Z,39.55
2018-11-11T23:00:51.936Z,37.40
2018-11-11T23:03:19.258Z,47.15
2018-11-11T23:05:46.569Z,41.77
2018-11-11T23:08:14.464Z,49.33
2018-11-11T23:10:41.763Z,47.83
2018-11-11T23:13:09.075Z,40.90
2018-11-11T23:15:36.395Z,52.35
2018-11-11T23:18:03.844Z,50.38
2018-11-11T23:20:31.174Z,49.73
2018-11-11T23:22:58.456Z,45.33
2018-11-11T23:25:25.750Z,49.18
2018-11-11T23:27:53.027Z,47.40
2018-11-11T23:30:21.567Z,53.10
2018-11-11T23:32:48.991Z,38.60
2018-11-11T23:35:16.322Z,41.88
2018-11-11T23:37:44.009Z,39.58
2018-11-11T23:40:12.602Z,41.37
2018-11-11T23:42:40.772Z,40.70
2018-11-11T23:45:08.118Z,34.88
2018-11-11T23:47:35.378Z,38.55
2018-11-11T23:50:02.990Z,33.50
2018-11-11T23:52:30.393Z,28.92
2018-11-11T23:54:57.708Z,31.17
2018-11-11T23:57:25.004Z,22.80
2018-11-11T23:59:52.336Z,22.48
